createdAt,value
2018-07-24T00:00:57.910Z,80.27
2018-07-24T00:02:03.455Z,80.46
2018-07-24T00:03:08.952Z,80.08
2018-07-24T00:04:14.469Z,80.46
2018-07-24T00:05:19.988Z,80.66
2018-07-24T00:06:25.509Z,80.43
2018-07-24T00:07:31.021Z,80.66
2018-07-24T00:08:36.539Z,80.08
2018-07-24T00:09:42.058Z,79.69
2018-07-24T00:10:47.591Z,78.92
2018-07-24T00:11:53.090Z,79.02
2018-07-24T00:12:58.616Z,79.50
2018-07-24T00:14:04.130Z,80.27
2018-07-24T00:15:09.647Z,79.98
2018-07-24T00:16:15.172Z,80.46
2018-07-24T00:17:20.688Z,80.91
2018-07-24T00:18:26.197Z,81.10
2018-07-24T00:19:31.720Z,81.01
2018-07-24T00:20:37.233Z,81.77
2018-07-24T00:21:42.766Z,81.39
2018-07-24T00:22:48.278Z,81.29
2018-07-24T00:23:53.789Z,81.29
2018-07-24T00:24:59.311Z,81.39
2018-07-24T00:26:04.838Z,81.39
2018-07-24T00:27:10.340Z,81.10
2018-07-24T00:28:15.862Z,81.29
2018-07-24T00:29:21.385Z,80.81
2018-07-24T00:30:26.894Z,81.39
2018-07-24T00:31:32.413Z,81.20
2018-07-24T00:32:37.932Z,81.39
2018-07-24T00:33:43.448Z,81.20
2018-07-24T00:34:48.964Z,81.68
2018-07-24T00:35:54.480Z,81.39
2018-07-24T00:37:00.003Z,82.02
2018-07-24T00:38:05.518Z,81.25
2018-07-24T00:39:11.037Z,81.83
2018-07-24T00:40:16.554Z,81.83
2018-07-24T00:41:22.071Z,82.12
2018-07-24T00:42:27.594Z,82.02
2018-07-24T00:43:33.109Z,81.25
2018-07-24T00:44:38.624Z,81.45
2018-07-24T00:45:44.142Z,82.21
2018-07-24T00:46:49.655Z,82.12
2018-07-24T00:47:55.173Z,82.31
2018-07-24T00:49:00.695Z,81.93
2018-07-24T00:50:06.212Z,81.39
2018-07-24T00:51:11.729Z,81.45
2018-07-24T00:52:17.248Z,81.45
2018-07-24T00:53:22.773Z,82.12
2018-07-24T00:54:28.280Z,81.06
2018-07-24T00:55:33.798Z,82.12
2018-07-24T00:56:39.317Z,81.83
2018-07-24T00:57:44.834Z,82.12
2018-07-24T00:58:50.352Z,82.02
2018-07-24T00:59:55.876Z,82.41
2018-07-24T01:01:01.379Z,82.50
2018-07-24T01:02:06.901Z,82.21
2018-07-24T01:03:12.425Z,82.12
2018-07-24T01:04:17.936Z,82.50
2018-07-24T01:05:23.460Z,82.50
2018-07-24T01:06:28.976Z,82.21
2018-07-24T01:07:34.489Z,81.93
2018-07-24T01:08:40.044Z,82.31
2018-07-24T01:09:45.526Z,82.41
2018-07-24T01:10:51.054Z,83.08
2018-07-24T01:11:56.560Z,83.08
2018-07-24T01:13:02.080Z,82.89
2018-07-24T01:14:07.593Z,83.08
2018-07-24T01:15:13.115Z,82.31
2018-07-24T01:16:18.630Z,82.41
2018-07-24T01:17:24.146Z,82.98
2018-07-24T01:18:29.660Z,83.28
2018-07-24T01:19:35.180Z,82.70
2018-07-24T01:20:40.696Z,82.98
2018-07-24T01:21:46.220Z,83.52
2018-07-24T01:22:51.736Z,83.18
2018-07-24T01:23:57.252Z,83.52
2018-07-24T01:25:02.770Z,83.72
2018-07-24T01:26:08.294Z,83.52
2018-07-24T01:27:13.802Z,83.81
2018-07-24T01:28:19.333Z,84.10
2018-07-24T01:29:24.851Z,84.10
2018-07-24T01:30:30.355Z,84.00
2018-07-24T01:31:35.872Z,84.10
2018-07-24T01:32:41.390Z,83.81
2018-07-24T01:33:46.908Z,83.91
2018-07-24T01:34:52.424Z,83.91
2018-07-24T01:35:57.936Z,84.10
2018-07-24T01:37:03.458Z,83.42
2018-07-24T01:38:08.974Z,83.42
2018-07-24T01:39:14.502Z,83.14
2018-07-24T01:40:20.008Z,82.37
2018-07-24T01:41:25.533Z,82.27
2018-07-24T01:42:31.046Z,81.70
2018-07-24T01:43:36.563Z,82.37
2018-07-24T01:44:42.076Z,82.17
2018-07-24T01:45:47.600Z,82.27
2018-07-24T01:46:53.111Z,82.37
2018-07-24T01:47:58.635Z,82.27
2018-07-24T01:49:04.148Z,82.27
2018-07-24T01:50:09.669Z,82.08
2018-07-24T01:51:15.181Z,82.37
2018-07-24T01:52:20.702Z,82.75
2018-07-24T01:53:26.213Z,83.14
2018-07-24T01:54:31.734Z,82.85
2018-07-24T01:55:37.250Z,82.56
2018-07-24T01:56:42.769Z,82.65
2018-07-24T01:57:48.286Z,82.85
2018-07-24T01:58:53.803Z,82.46
2018-07-24T01:59:59.321Z,82.94
2018-07-24T02:01:04.837Z,83.04
2018-07-24T02:02:10.352Z,83.33
2018-07-24T02:03:15.869Z,83.52
2018-07-24T02:04:21.386Z,82.56
2018-07-24T02:05:26.911Z,81.98
2018-07-24T02:06:32.427Z,82.46
2018-07-24T02:07:37.940Z,82.08
2018-07-24T02:08:43.456Z,81.70
2018-07-24T02:09:48.974Z,81.79
2018-07-24T02:10:54.488Z,82.85
2018-07-24T02:12:00.010Z,82.56
2018-07-24T02:13:05.533Z,83.52
2018-07-24T02:14:11.042Z,83.42
2018-07-24T02:15:16.561Z,84.10
2018-07-24T02:16:22.078Z,84.00
2018-07-24T02:17:27.596Z,83.91
2018-07-24T02:18:33.110Z,83.81
2018-07-24T02:19:38.626Z,83.14
2018-07-24T02:20:44.146Z,83.81
2018-07-24T02:21:49.663Z,83.42
2018-07-24T02:22:55.186Z,83.42
2018-07-24T02:24:00.700Z,83.77
2018-07-24T02:25:06.224Z,83.29
2018-07-24T02:26:11.731Z,83.29
2018-07-24T02:27:17.274Z,84.25
2018-07-24T02:28:22.762Z,83.96
2018-07-24T02:29:28.282Z,84.44
2018-07-24T02:30:33.802Z,84.44
2018-07-24T02:31:39.314Z,84.44
2018-07-24T02:32:44.834Z,84.63
2018-07-24T02:33:50.352Z,84.63
2018-07-24T02:34:55.868Z,84.54
2018-07-24T02:36:01.387Z,84.73
2018-07-24T02:37:06.903Z,85.31
2018-07-24T02:38:12.418Z,85.69
2018-07-24T02:39:17.933Z,85.21
2018-07-24T02:40:23.448Z,85.31
2018-07-24T02:41:28.975Z,85.50
2018-07-24T02:42:34.487Z,85.50
2018-07-24T02:43:40.005Z,85.40
2018-07-24T02:44:45.517Z,85.21
2018-07-24T02:45:51.033Z,85.69
2018-07-24T02:46:56.549Z,85.78
2018-07-24T02:48:02.067Z,85.60
2018-07-24T02:49:07.584Z,85.21
2018-07-24T02:50:13.111Z,85.69
2018-07-24T02:51:18.620Z,85.78
2018-07-24T02:52:24.137Z,85.69
2018-07-24T02:53:29.652Z,86.08
2018-07-24T02:54:35.180Z,85.88
2018-07-24T02:55:40.686Z,85.50
2018-07-24T02:56:46.203Z,85.02
2018-07-24T02:57:51.719Z,84.92
2018-07-24T02:58:57.232Z,85.11
2018-07-24T03:00:02.761Z,85.21
2018-07-24T03:01:08.271Z,85.11
2018-07-24T03:02:13.787Z,85.21
2018-07-24T03:03:19.301Z,84.63
2018-07-24T03:04:24.820Z,85.40
2018-07-24T03:05:30.341Z,85.50
2018-07-24T03:06:35.855Z,85.21
2018-07-24T03:07:41.375Z,85.11
2018-07-24T03:08:46.891Z,85.02
2018-07-24T03:09:52.405Z,85.11
2018-07-24T03:10:57.925Z,85.40
2018-07-24T03:12:03.440Z,85.31
2018-07-24T03:13:08.964Z,85.02
2018-07-24T03:14:14.470Z,85.40
2018-07-24T03:15:19.989Z,85.21
2018-07-24T03:16:25.600Z,84.92
2018-07-24T03:17:31.023Z,85.31
2018-07-24T03:18:36.541Z,85.40
2018-07-24T03:19:42.058Z,85.02
2018-07-24T03:20:47.577Z,84.83
2018-07-24T03:21:53.094Z,85.31
2018-07-24T03:22:58.610Z,85.02
2018-07-24T03:24:04.126Z,85.21
2018-07-24T03:25:09.651Z,85.07
2018-07-24T03:26:15.154Z,85.36
2018-07-24T03:27:20.678Z,85.46
2018-07-24T03:28:26.187Z,85.27
2018-07-24T03:29:31.708Z,84.83
2018-07-24T03:30:37.224Z,84.92
2018-07-24T03:31:42.741Z,85.60
2018-07-24T03:32:48.262Z,85.40
2018-07-24T03:33:53.779Z,84.83
2018-07-24T03:34:59.301Z,85.21
2018-07-24T03:36:04.805Z,84.63
2018-07-24T03:37:10.326Z,84.63
2018-07-24T03:38:15.843Z,84.44
2018-07-24T03:39:21.357Z,84.78
2018-07-24T03:40:26.876Z,84.92
2018-07-24T03:41:32.394Z,85.07
2018-07-24T03:42:37.913Z,85.21
2018-07-24T03:43:43.425Z,84.98
2018-07-24T03:44:48.941Z,84.83
2018-07-24T03:45:54.456Z,84.88
2018-07-24T03:46:59.976Z,84.83
2018-07-24T03:48:05.495Z,84.92
2018-07-24T03:49:11.011Z,84.16
2018-07-24T03:50:16.534Z,84.63
2018-07-24T03:51:22.044Z,84.44
2018-07-24T03:52:27.574Z,84.25
2018-07-24T03:53:33.075Z,84.25
2018-07-24T03:54:38.594Z,84.16
2018-07-24T03:55:44.110Z,83.96
2018-07-24T03:56:49.623Z,84.16
2018-07-24T03:57:55.186Z,84.06
2018-07-24T03:59:00.657Z,85.21
2018-07-24T04:00:06.173Z,84.73
2018-07-24T04:01:11.695Z,84.63
2018-07-24T04:02:17.215Z,84.63
2018-07-24T04:03:22.729Z,84.78
2018-07-24T04:04:28.238Z,84.63
2018-07-24T04:05:33.757Z,84.69
2018-07-24T04:06:39.277Z,84.98
2018-07-24T04:07:44.793Z,85.17
2018-07-24T04:08:50.311Z,85.07
2018-07-24T04:09:55.841Z,85.07
2018-07-24T04:11:01.345Z,85.46
2018-07-24T04:12:06.859Z,85.07
2018-07-24T04:13:12.379Z,85.84
2018-07-24T04:14:17.894Z,86.04
2018-07-24T04:15:23.407Z,86.13
2018-07-24T04:16:28.923Z,86.42
2018-07-24T04:17:34.438Z,86.61
2018-07-24T04:18:39.960Z,86.61
2018-07-24T04:19:45.474Z,86.80
2018-07-24T04:20:50.994Z,87.09
2018-07-24T04:21:56.509Z,86.80
2018-07-24T04:23:02.039Z,87.19
2018-07-24T04:24:07.542Z,87.57
2018-07-24T04:25:13.061Z,87.19
2018-07-24T04:26:18.572Z,87.09
2018-07-24T04:27:24.092Z,86.94
2018-07-24T04:28:29.608Z,87.09
2018-07-24T04:29:35.125Z,86.71
2018-07-24T04:30:40.647Z,86.36
2018-07-24T04:31:46.156Z,86.27
2018-07-24T04:32:51.674Z,86.46
2018-07-24T04:33:57.190Z,86.27
2018-07-24T04:35:02.709Z,86.27
2018-07-24T04:36:08.226Z,86.46
2018-07-24T04:37:13.740Z,86.56
2018-07-24T04:38:19.260Z,86.46
2018-07-24T04:39:24.776Z,86.27
2018-07-24T04:40:30.288Z,86.75
2018-07-24T04:41:35.805Z,87.04
2018-07-24T04:42:41.330Z,87.04
2018-07-24T04:43:46.843Z,86.85
2018-07-24T04:44:52.360Z,87.52
2018-07-24T04:45:57.876Z,87.42
2018-07-24T04:47:03.391Z,87.52
2018-07-24T04:48:08.910Z,87.33
2018-07-24T04:49:14.424Z,87.62
2018-07-24T04:50:19.942Z,86.46
2018-07-24T04:51:25.457Z,86.65
2018-07-24T04:52:30.975Z,87.42
2018-07-24T04:53:36.490Z,87.33
2018-07-24T04:54:42.005Z,87.42
2018-07-24T04:55:47.528Z,87.04
2018-07-24T04:56:53.041Z,86.75
2018-07-24T04:57:58.557Z,86.94
2018-07-24T04:59:04.071Z,87.04
2018-07-24T05:00:09.594Z,87.13
2018-07-24T05:01:15.107Z,86.65
2018-07-24T05:02:20.623Z,86.94
2018-07-24T05:03:26.141Z,86.75
2018-07-24T05:04:31.659Z,86.65
2018-07-24T05:05:37.176Z,86.31
2018-07-24T05:06:42.692Z,86.89
2018-07-24T05:07:48.211Z,87.08
2018-07-24T05:08:53.725Z,86.85
2018-07-24T05:09:59.243Z,86.89
2018-07-24T05:11:04.760Z,86.99
2018-07-24T05:12:10.279Z,86.60
2018-07-24T05:13:15.797Z,86.31
2018-07-24T05:14:21.310Z,86.31
2018-07-24T05:15:26.834Z,86.79
2018-07-24T05:16:32.346Z,86.02
2018-07-24T05:17:37.864Z,86.22
2018-07-24T05:18:43.378Z,86.79
2018-07-24T05:19:48.895Z,87.18
2018-07-24T05:20:54.413Z,86.83
2018-07-24T05:21:59.928Z,86.22
2018-07-24T05:23:05.445Z,86.35
2018-07-24T05:24:10.968Z,85.87
2018-07-24T05:25:16.481Z,85.10
2018-07-24T05:26:22.003Z,85.00
2018-07-24T05:27:27.514Z,85.00
2018-07-24T05:28:33.028Z,84.62
2018-07-24T05:29:38.547Z,84.72
2018-07-24T05:30:44.065Z,84.81
2018-07-24T05:31:49.583Z,84.62
2018-07-24T05:32:55.106Z,84.23
2018-07-24T05:34:00.625Z,84.53
2018-07-24T05:35:06.138Z,84.05
2018-07-24T05:36:11.653Z,84.28
2018-07-24T05:37:17.173Z,84.09
2018-07-24T05:38:22.695Z,84.09
2018-07-24T05:39:28.204Z,84.38
2018-07-24T05:40:33.720Z,84.56
2018-07-24T05:41:39.238Z,84.56
2018-07-24T05:42:44.753Z,84.38
2018-07-24T05:43:50.280Z,84.66
2018-07-24T05:44:55.793Z,84.18
2018-07-24T05:46:01.304Z,84.76
2018-07-24T05:47:06.825Z,84.28
2018-07-24T05:48:12.344Z,84.18
2018-07-24T05:49:17.867Z,84.28
2018-07-24T05:50:23.385Z,83.89
2018-07-24T05:51:28.891Z,83.74
2018-07-24T05:52:34.410Z,83.07
2018-07-24T05:53:39.929Z,83.07
2018-07-24T05:54:45.446Z,83.07
2018-07-24T05:55:50.970Z,82.68
2018-07-24T05:56:56.483Z,83.26
2018-07-24T05:58:02.003Z,82.87
2018-07-24T05:59:07.518Z,82.68
2018-07-24T06:00:13.039Z,83.36
2018-07-24T06:01:18.553Z,82.29
2018-07-24T06:02:24.072Z,83.07
2018-07-24T06:03:29.595Z,82.39
2018-07-24T06:04:35.106Z,82.34
2018-07-24T06:05:40.624Z,82.05
2018-07-24T06:06:46.156Z,82.34
2018-07-24T06:07:51.661Z,82.05
2018-07-24T06:08:57.176Z,82.24
2018-07-24T06:10:02.698Z,81.47
2018-07-24T06:11:08.277Z,81.57
2018-07-24T06:12:13.730Z,80.79
2018-07-24T06:13:19.261Z,81.12
2018-07-24T06:14:24.800Z,80.64
2018-07-24T06:15:30.282Z,81.02
2018-07-24T06:16:35.831Z,81.12
2018-07-24T06:17:41.330Z,80.45
2018-07-24T06:18:46.836Z,80.54
2018-07-24T06:19:52.361Z,80.64
2018-07-24T06:20:57.875Z,80.58
2018-07-24T06:22:03.391Z,80.54
2018-07-24T06:23:08.918Z,80.97
2018-07-24T06:24:14.430Z,80.49
2018-07-24T06:25:19.955Z,80.10
2018-07-24T06:26:25.469Z,80.39
2018-07-24T06:27:30.987Z,80.20
2018-07-24T06:28:36.502Z,80.20
2018-07-24T06:29:42.028Z,79.72
2018-07-24T06:30:47.539Z,79.14
2018-07-24T06:31:53.071Z,79.43
2018-07-24T06:32:58.575Z,79.24
2018-07-24T06:34:04.102Z,78.94
2018-07-24T06:35:09.681Z,78.94
2018-07-24T06:36:15.129Z,79.08
2018-07-24T06:37:20.651Z,78.94
2018-07-24T06:38:26.179Z,79.27
2018-07-24T06:39:31.708Z,79.56
2018-07-24T06:40:37.202Z,78.50
2018-07-24T06:41:42.725Z,78.69
2018-07-24T06:42:48.245Z,78.69
2018-07-24T06:43:53.763Z,78.21
2018-07-24T06:44:59.284Z,77.48
2018-07-24T06:46:04.796Z,77.19
2018-07-24T06:47:10.316Z,77.38
2018-07-24T06:48:15.834Z,76.80
2018-07-24T06:49:21.359Z,77.19
2018-07-24T06:50:26.870Z,77.38
2018-07-24T06:51:32.436Z,76.61
2018-07-24T06:52:37.911Z,77.19
2018-07-24T06:53:43.427Z,76.80
2018-07-24T06:54:48.948Z,76.61
2018-07-24T06:55:54.467Z,76.26
2018-07-24T06:56:59.985Z,76.45
2018-07-24T06:58:05.515Z,77.13
2018-07-24T06:59:11.024Z,76.16
2018-07-24T07:00:16.540Z,76.55
2018-07-24T07:01:22.062Z,76.16
2018-07-24T07:02:27.582Z,75.78
2018-07-24T07:03:33.098Z,75.48
2018-07-24T07:04:38.639Z,75.20
2018-07-24T07:05:44.138Z,75.43
2018-07-24T07:06:49.652Z,75.33
2018-07-24T07:07:55.174Z,75.81
2018-07-24T07:09:00.693Z,75.43
2018-07-24T07:10:06.227Z,75.13
2018-07-24T07:11:11.727Z,74.36
2018-07-24T07:12:17.248Z,74.27
2018-07-24T07:13:23.344Z,74.27
2018-07-24T07:14:28.291Z,74.30
2018-07-24T07:15:33.807Z,74.79
2018-07-24T07:16:39.330Z,74.21
2018-07-24T07:17:44.844Z,74.11
2018-07-24T07:18:50.367Z,74.59
2018-07-24T07:19:55.887Z,74.21
2018-07-24T07:21:01.406Z,73.53
2018-07-24T07:22:06.924Z,72.98
2018-07-24T07:23:12.447Z,72.98
2018-07-24T07:24:17.961Z,72.02
2018-07-24T07:25:23.481Z,72.30
2018-07-24T07:26:29.001Z,71.53
2018-07-24T07:27:34.520Z,71.44
2018-07-24T07:28:40.059Z,71.34
2018-07-24T07:29:45.560Z,69.98
2018-07-24T07:30:51.080Z,70.21
2018-07-24T07:31:56.597Z,70.40
2018-07-24T07:33:02.120Z,68.27
2018-07-24T07:34:07.649Z,67.60
2018-07-24T07:35:13.160Z,67.69
2018-07-24T07:36:18.682Z,67.98
2018-07-24T07:37:24.203Z,67.40
2018-07-24T07:38:29.713Z,67.50
2018-07-24T07:39:35.241Z,66.95
2018-07-24T07:40:40.766Z,65.40
2018-07-24T07:41:46.275Z,65.79
2018-07-24T07:42:51.803Z,66.47
2018-07-24T07:43:57.336Z,66.60
2018-07-24T07:45:02.844Z,66.66
2018-07-24T07:46:08.358Z,66.17
2018-07-24T07:47:13.881Z,66.37
2018-07-24T07:48:19.443Z,65.82
2018-07-24T07:49:25.161Z,64.75
2018-07-24T07:50:30.460Z,63.01
2018-07-24T07:51:35.963Z,63.10
2018-07-24T07:52:41.486Z,63.20
2018-07-24T07:53:47.000Z,63.69
2018-07-24T07:54:52.524Z,63.01
2018-07-24T07:55:58.040Z,62.72
2018-07-24T07:57:03.563Z,62.13
2018-07-24T07:58:09.085Z,62.07
2018-07-24T07:59:14.601Z,62.16
2018-07-24T08:00:20.120Z,62.36
2018-07-24T08:01:25.637Z,62.16
2018-07-24T08:02:31.212Z,61.58
2018-07-24T08:03:36.687Z,61.19
2018-07-24T08:04:42.203Z,60.61
2018-07-24T08:05:47.721Z,59.94
2018-07-24T08:06:53.242Z,60.71
2018-07-24T08:07:58.770Z,60.61
2018-07-24T08:09:04.279Z,60.71
2018-07-24T08:10:09.810Z,60.32
2018-07-24T08:11:15.323Z,59.84
2018-07-24T08:12:20.888Z,59.06
2018-07-24T08:13:26.369Z,59.48
2018-07-24T08:14:31.887Z,59.87
2018-07-24T08:15:37.408Z,59.48
2018-07-24T08:16:42.933Z,58.70
2018-07-24T08:17:48.455Z,59.28
2018-07-24T08:18:53.970Z,58.80
2018-07-24T08:19:59.486Z,58.61
2018-07-24T08:21:05.015Z,57.93
2018-07-24T08:22:10.571Z,57.83
2018-07-24T08:23:16.052Z,57.83
2018-07-24T08:24:21.567Z,56.67
2018-07-24T08:25:27.091Z,56.57
2018-07-24T08:26:32.612Z,56.89
2018-07-24T08:27:38.133Z,56.79
2018-07-24T08:28:43.668Z,56.79
2018-07-24T08:29:49.180Z,56.76
2018-07-24T08:30:54.695Z,56.98
2018-07-24T08:32:00.216Z,56.89
2018-07-24T08:33:05.731Z,56.30
2018-07-24T08:34:11.257Z,56.50
2018-07-24T08:35:16.775Z,56.70
2018-07-24T08:36:22.298Z,57.08
2018-07-24T08:37:27.819Z,56.98
2018-07-24T08:38:33.345Z,56.89
2018-07-24T08:39:38.864Z,57.28
2018-07-24T08:40:44.390Z,56.89
2018-07-24T08:41:49.904Z,56.30
2018-07-24T08:42:55.426Z,56.43
2018-07-24T08:44:00.954Z,56.24
2018-07-24T08:45:06.464Z,56.43
2018-07-24T08:46:11.993Z,56.24
2018-07-24T08:47:17.509Z,55.75
2018-07-24T08:48:23.028Z,55.27
2018-07-24T08:49:28.549Z,55.55
2018-07-24T08:50:34.078Z,55.27
2018-07-24T08:51:39.591Z,55.49
2018-07-24T08:52:45.183Z,55.29
2018-07-24T08:53:50.820Z,55.29
2018-07-24T08:54:56.313Z,54.80
2018-07-24T08:56:01.673Z,55.49
2018-07-24T08:57:07.196Z,55.39
2018-07-24T08:58:12.722Z,55.29
2018-07-24T08:59:18.242Z,55.29
2018-07-24T09:00:23.758Z,55.49
2018-07-24T09:01:29.283Z,55.29
2018-07-24T09:02:34.808Z,55.22
2018-07-24T09:03:40.342Z,55.03
2018-07-24T09:04:45.849Z,54.44
2018-07-24T09:05:51.377Z,54.25
2018-07-24T09:06:56.890Z,54.25
2018-07-24T09:08:02.405Z,54.54
2018-07-24T09:09:07.934Z,54.83
2018-07-24T09:10:13.490Z,54.64
2018-07-24T09:11:18.978Z,54.64
2018-07-24T09:12:24.494Z,53.47
2018-07-24T09:13:30.022Z,53.96
2018-07-24T09:14:35.541Z,53.96
2018-07-24T09:15:41.144Z,54.05
2018-07-24T09:16:46.578Z,53.96
2018-07-24T09:17:52.097Z,54.08
2018-07-24T09:18:57.644Z,54.18
2018-07-24T09:20:03.140Z,53.79
2018-07-24T09:21:08.669Z,53.99
2018-07-24T09:22:14.192Z,53.59
2018-07-24T09:23:19.705Z,53.79
2018-07-24T09:24:25.234Z,54.86
2018-07-24T09:25:30.762Z,53.11
2018-07-24T09:26:36.277Z,52.33
2018-07-24T09:27:41.793Z,52.72
2018-07-24T09:28:47.316Z,52.94
2018-07-24T09:29:52.831Z,53.42
2018-07-24T09:30:58.356Z,53.72
2018-07-24T09:32:03.887Z,54.40
2018-07-24T09:33:09.410Z,54.40
2018-07-24T09:34:14.932Z,53.52
2018-07-24T09:35:20.452Z,53.52
2018-07-24T09:36:25.965Z,52.55
2018-07-24T09:37:31.489Z,51.97
2018-07-24T09:38:37.013Z,52.06
2018-07-24T09:39:42.531Z,51.39
2018-07-24T09:40:48.065Z,51.41
2018-07-24T09:41:53.576Z,51.99
2018-07-24T09:42:59.106Z,51.12
2018-07-24T09:44:04.618Z,51.51
2018-07-24T09:45:10.145Z,52.77
2018-07-24T09:46:15.661Z,50.82
2018-07-24T09:47:21.188Z,50.16
2018-07-24T09:48:26.720Z,50.95
2018-07-24T09:49:32.238Z,50.56
2018-07-24T09:50:37.798Z,51.63
2018-07-24T09:51:43.283Z,51.53
2018-07-24T09:52:48.790Z,51.24
2018-07-24T09:53:54.314Z,51.92
2018-07-24T09:54:59.838Z,51.14
2018-07-24T09:56:05.358Z,50.75
2018-07-24T09:57:10.889Z,50.65
2018-07-24T09:58:16.408Z,49.78
2018-07-24T09:59:21.979Z,49.51
2018-07-24T10:00:27.447Z,49.41
2018-07-24T10:01:32.973Z,50.68
2018-07-24T10:02:38.495Z,49.41
2018-07-24T10:03:44.015Z,49.41
2018-07-24T10:04:49.536Z,48.34
2018-07-24T10:05:55.057Z,48.24
2018-07-24T10:07:00.591Z,48.63
2018-07-24T10:08:06.100Z,48.73
2018-07-24T10:09:11.630Z,48.27
2018-07-24T10:10:17.150Z,48.27
2018-07-24T10:11:22.673Z,49.05
2018-07-24T10:12:28.195Z,48.07
2018-07-24T10:13:33.727Z,47.78
2018-07-24T10:14:39.237Z,47.68
2018-07-24T10:15:44.761Z,47.58
2018-07-24T10:16:50.352Z,47.61
2018-07-24T10:17:55.805Z,46.92
2018-07-24T10:19:01.370Z,47.61
2018-07-24T10:20:06.848Z,47.22
2018-07-24T10:21:12.371Z,46.73
2018-07-24T10:22:17.948Z,47.02
2018-07-24T10:23:23.415Z,46.83
2018-07-24T10:24:28.987Z,47.02
2018-07-24T10:25:34.463Z,47.24
2018-07-24T10:26:39.984Z,47.44
2018-07-24T10:27:45.517Z,46.85
2018-07-24T10:28:51.030Z,46.56
2018-07-24T10:29:56.557Z,46.85
2018-07-24T10:31:02.081Z,46.17
2018-07-24T10:32:07.597Z,46.07
2018-07-24T10:33:13.120Z,46.56
2018-07-24T10:34:18.644Z,45.78
2018-07-24T10:35:24.164Z,46.09
2018-07-24T10:36:29.707Z,45.31
2018-07-24T10:37:35.216Z,45.02
2018-07-24T10:38:40.739Z,45.31
2018-07-24T10:39:46.261Z,44.63
2018-07-24T10:40:51.778Z,44.73
2018-07-24T10:41:57.308Z,45.12
2018-07-24T10:43:02.859Z,45.02
2018-07-24T10:44:08.348Z,44.94
2018-07-24T10:45:13.869Z,44.55
2018-07-24T10:46:19.402Z,45.14
2018-07-24T10:47:24.917Z,44.45
2018-07-24T10:48:30.450Z,43.96
2018-07-24T10:49:35.965Z,43.77
2018-07-24T10:50:41.488Z,44.45
2018-07-24T10:51:47.012Z,42.99
2018-07-24T10:52:52.534Z,43.28
2018-07-24T10:53:58.062Z,42.89
2018-07-24T10:55:03.585Z,43.38
2018-07-24T10:56:09.115Z,43.28
2018-07-24T10:57:14.629Z,42.50
2018-07-24T10:58:20.151Z,42.99
2018-07-24T10:59:25.669Z,43.08
2018-07-24T11:00:31.196Z,43.20
2018-07-24T11:01:36.724Z,43.40
2018-07-24T11:02:42.242Z,43.20
2018-07-24T11:03:47.772Z,42.61
2018-07-24T11:04:53.289Z,43.10
2018-07-24T11:05:58.809Z,42.32
2018-07-24T11:07:04.339Z,42.83
2018-07-24T11:08:09.861Z,42.74
2018-07-24T11:09:15.384Z,42.64
2018-07-24T11:10:20.905Z,42.44
2018-07-24T11:11:26.432Z,42.15
2018-07-24T11:12:31.957Z,43.03
2018-07-24T11:13:37.519Z,42.66
2018-07-24T11:14:43.003Z,42.85
2018-07-24T11:15:48.522Z,42.36
2018-07-24T11:16:54.047Z,42.27
2018-07-24T11:17:59.575Z,41.58
2018-07-24T11:19:05.092Z,42.27
2018-07-24T11:20:10.628Z,41.97
2018-07-24T11:21:16.142Z,42.46
2018-07-24T11:22:21.743Z,42.56
2018-07-24T11:23:27.188Z,41.97
2018-07-24T11:24:32.704Z,41.58
2018-07-24T11:25:38.243Z,41.70
2018-07-24T11:26:43.762Z,41.80
2018-07-24T11:27:49.285Z,43.24
2018-07-24T11:28:54.817Z,43.76
2018-07-24T11:30:00.338Z,43.17
2018-07-24T11:31:05.865Z,41.23
2018-07-24T11:32:11.380Z,43.19
2018-07-24T11:33:16.933Z,42.80
2018-07-24T11:34:22.430Z,42.21
2018-07-24T11:35:27.970Z,41.42
2018-07-24T11:36:33.483Z,41.13
2018-07-24T11:37:39.008Z,41.13
2018-07-24T11:38:44.535Z,41.25
2018-07-24T11:39:50.051Z,40.37
2018-07-24T11:40:55.605Z,40.08
2018-07-24T11:42:01.105Z,40.08
2018-07-24T11:43:06.629Z,40.17
2018-07-24T11:44:12.264Z,40.56
2018-07-24T11:45:17.676Z,39.98
2018-07-24T11:46:23.208Z,39.88
2018-07-24T11:47:28.732Z,39.78
2018-07-24T11:48:34.243Z,39.78
2018-07-24T11:49:39.771Z,40.08
2018-07-24T11:50:45.295Z,39.78
2018-07-24T11:51:50.843Z,39.59
2018-07-24T11:52:56.343Z,39.19
2018-07-24T11:54:01.871Z,39.09
2018-07-24T11:55:07.395Z,39.78
2018-07-24T11:56:12.918Z,39.78
2018-07-24T11:57:18.444Z,40.09
2018-07-24T11:58:23.967Z,40.00
2018-07-24T11:59:29.492Z,39.31
2018-07-24T12:00:35.020Z,39.80
2018-07-24T12:01:40.543Z,40.58
2018-07-24T12:02:46.069Z,40.19
2018-07-24T12:03:51.592Z,38.53
2018-07-24T12:04:57.112Z,38.53
2018-07-24T12:06:02.642Z,38.33
2018-07-24T12:07:08.174Z,38.04
2018-07-24T12:08:13.694Z,37.65
2018-07-24T12:09:19.213Z,38.13
2018-07-24T12:10:24.740Z,37.35
2018-07-24T12:11:30.287Z,38.92
2018-07-24T12:12:35.799Z,41.78
2018-07-24T12:13:41.315Z,41.39
2018-07-24T12:14:46.871Z,42.27
2018-07-24T12:15:52.373Z,38.64
2018-07-24T12:16:57.885Z,40.63
2018-07-24T12:18:03.409Z,41.71
2018-07-24T12:19:08.941Z,41.41
2018-07-24T12:20:14.467Z,39.64
2018-07-24T12:21:19.996Z,37.88
2018-07-24T12:22:25.531Z,38.07
2018-07-24T12:23:31.036Z,37.68
2018-07-24T12:24:36.571Z,37.48
2018-07-24T12:25:42.090Z,37.38
2018-07-24T12:26:47.606Z,37.19
2018-07-24T12:27:53.136Z,36.90
2018-07-24T12:28:58.660Z,36.90
2018-07-24T12:30:04.195Z,36.90
2018-07-24T12:31:09.714Z,36.70
2018-07-24T12:32:15.241Z,37.19
2018-07-24T12:33:20.769Z,36.80
2018-07-24T12:34:26.288Z,36.01
2018-07-24T12:35:31.810Z,36.99
2018-07-24T12:36:37.346Z,36.51
2018-07-24T12:37:42.877Z,36.30
2018-07-24T12:38:48.393Z,36.60
2018-07-24T12:39:53.917Z,39.54
2018-07-24T12:40:59.462Z,36.11
2018-07-24T12:42:05.012Z,36.80
2018-07-24T12:43:10.488Z,38.07
2018-07-24T12:44:16.015Z,38.68
2018-07-24T12:45:21.536Z,40.55
2018-07-24T12:46:27.067Z,36.82
2018-07-24T12:47:32.591Z,38.29
2018-07-24T12:48:38.122Z,37.50
2018-07-24T12:49:43.640Z,36.05
2018-07-24T12:50:49.169Z,35.24
2018-07-24T12:51:54.696Z,35.24
2018-07-24T12:53:00.215Z,36.03
2018-07-24T12:54:05.742Z,36.13
2018-07-24T12:55:11.268Z,36.03
2018-07-24T12:56:16.795Z,36.15
2018-07-24T12:57:22.319Z,36.05
2018-07-24T12:58:27.844Z,36.54
2018-07-24T12:59:33.366Z,36.93
2018-07-24T13:00:38.906Z,36.44
2018-07-24T13:01:44.435Z,37.13
2018-07-24T13:02:49.970Z,37.32
2018-07-24T13:03:55.470Z,37.03
2018-07-24T13:05:00.995Z,36.44
2018-07-24T13:06:06.524Z,36.15
2018-07-24T13:07:12.051Z,36.44
2018-07-24T13:08:17.620Z,36.15
2018-07-24T13:09:23.099Z,36.24
2018-07-24T13:10:28.620Z,35.75
2018-07-24T13:11:34.149Z,35.95
2018-07-24T13:12:39.677Z,35.95
2018-07-24T13:13:45.199Z,36.54
2018-07-24T13:14:50.732Z,37.13
2018-07-24T13:15:56.255Z,38.31
2018-07-24T13:17:01.775Z,36.42
2018-07-24T13:18:07.303Z,36.22
2018-07-24T13:19:12.828Z,36.91
2018-07-24T13:20:18.349Z,36.82
2018-07-24T13:21:23.886Z,36.32
2018-07-24T13:22:29.403Z,38.29
2018-07-24T13:23:34.928Z,36.82
2018-07-24T13:24:40.464Z,36.62
2018-07-24T13:25:45.979Z,36.72
2018-07-24T13:26:51.508Z,35.93
2018-07-24T13:27:57.030Z,35.34
2018-07-24T13:29:02.557Z,36.72
2018-07-24T13:30:08.081Z,35.93
2018-07-24T13:31:13.607Z,36.03
2018-07-24T13:32:19.128Z,36.03
2018-07-24T13:33:24.676Z,37.11
2018-07-24T13:34:30.193Z,37.99
2018-07-24T13:35:35.711Z,35.93
2018-07-24T13:36:41.245Z,36.91
2018-07-24T13:37:46.771Z,36.72
2018-07-24T13:38:52.288Z,36.05
2018-07-24T13:39:57.822Z,39.09
2018-07-24T13:41:03.333Z,39.58
2018-07-24T13:42:08.862Z,37.21
2018-07-24T13:43:14.393Z,35.75
2018-07-24T13:44:19.915Z,36.15
2018-07-24T13:45:25.441Z,36.74
2018-07-24T13:46:30.970Z,37.23
2018-07-24T13:47:36.484Z,36.93
2018-07-24T13:48:42.015Z,36.93
2018-07-24T13:49:47.543Z,36.74
2018-07-24T13:50:53.063Z,35.93
2018-07-24T13:51:58.608Z,35.66
2018-07-24T13:53:04.112Z,34.66
2018-07-24T13:54:09.641Z,34.95
2018-07-24T13:55:15.162Z,35.16
2018-07-24T13:56:20.691Z,34.46
2018-07-24T13:57:26.212Z,35.54
2018-07-24T13:58:31.750Z,35.05
2018-07-24T13:59:37.264Z,34.56
2018-07-24T14:00:42.797Z,34.56
2018-07-24T14:01:48.317Z,34.16
2018-07-24T14:02:53.855Z,34.56
2018-07-24T14:03:59.373Z,34.26